.
WxDataArchive / Data Records for 2007-01-16
2007-01-15 January 2007 2007-01-17

Data Records for Tuesday, 16 January 2007

Time	Temp	Chill	HIndex	Humid	Dewpt	 Wind 	HiWind	WindDir	Rain 	Barom 
-----	----	-----	------	-----	-----	------	------	-------	-----	----- 
00:00	29.4	29.4	29.4	79	23.7	1	4	270	0.00	30.090 
00:05	29.1	29.1	29.1	80	23.7	0	2	315	0.00	30.092 
00:10	29.0	29.0	29.0	78	23.0	1	6	338	0.00	30.093 
00:15	29.0	29.0	29.0	78	23.0	1	5	270	0.00	30.097 
00:20	28.7	28.7	28.7	77	22.4	2	7	315	0.00	30.098 
00:25	28.4	28.4	28.4	78	22.4	1	4	315	0.00	30.102 
00:30	28.1	28.1	28.1	79	22.4	1	3	315	0.00	30.098 
00:35	27.9	27.9	27.9	79	22.2	1	4	315	0.00	30.103 
00:40	27.9	27.9	27.9	79	22.2	1	4	315	0.00	30.101 
00:45	27.8	27.8	27.8	79	22.2	1	5	270	0.00	30.098 
00:50	27.6	27.6	27.6	79	22.0	1	3	292	0.00	30.097 
00:55	27.6	27.6	27.6	79	22.0	1	3	315	0.00	30.101 
01:00	27.6	27.6	27.6	79	22.0	0	2	270	0.00	30.101 
01:05	27.5	27.5	27.5	79	21.9	1	2	292	0.00	30.103 
01:10	27.5	27.5	27.5	80	22.2	0	3	248	0.00	30.107 
01:15	27.5	27.5	27.5	80	22.2	1	4	315	0.00	30.110 
01:20	27.5	27.5	27.5	80	22.2	1	3	338	0.00	30.109 
01:25	27.3	27.3	27.3	80	22.0	1	3	315	0.00	30.110 
01:30	27.5	27.5	27.5	80	22.2	0	2	315	0.00	30.111 
01:35	27.3	27.3	27.3	81	22.3	0	2	315	0.00	30.110 
01:40	27.3	27.3	27.3	80	22.0	1	3	292	0.00	30.112 
01:45	27.3	27.3	27.3	79	21.7	1	4	338	0.00	30.112 
01:50	27.3	27.3	27.3	79	21.7	1	4	292	0.00	30.112 
01:55	27.3	27.3	27.3	79	21.7	1	4	315	0.00	30.123 
02:00	27.2	27.2	27.2	79	21.6	0	2	315	0.00	30.124 
02:05	27.2	27.2	27.2	79	21.6	0	2	292	0.00	30.127 
02:10	27.2	27.2	27.2	80	21.9	1	3	315	0.00	30.130 
02:15	27.2	27.2	27.2	79	21.6	1	3	315	0.00	30.132 
02:20	27.2	27.2	27.2	79	21.6	1	3	338	0.00	30.140 
02:25	27.0	27.0	27.0	79	21.4	1	6	315	0.00	30.142 
02:30	27.0	27.0	27.0	79	21.4	1	3	0	0.00	30.144 
02:35	27.0	27.0	27.0	79	21.4	0	2	292	0.00	30.146 
02:40	27.0	27.0	27.0	80	21.7	1	4	292	0.00	30.149 
02:45	27.0	27.0	27.0	80	21.7	1	3	315	0.00	30.151 
02:50	27.0	27.0	27.0	80	21.7	0	1	315	0.00	30.153 
02:55	27.0	27.0	27.0	81	22.0	0	2	292	0.00	30.156 
03:00	27.0	27.0	27.0	81	22.0	0	1	292	0.00	30.158 
03:05	27.0	27.0	27.0	81	22.0	0	2	292	0.00	30.158 
03:10	27.0	27.0	27.0	81	22.0	0	1	292	0.00	30.158 
03:15	27.2	27.2	27.2	82	22.4	0	1	292	0.00	30.162 
03:20	27.2	27.2	27.2	81	22.2	0	2	292	0.00	30.159 
03:25	27.0	27.0	27.0	81	22.0	0	2	292	0.00	30.160 
03:30	27.0	27.0	27.0	80	21.7	0	2	315	0.00	30.162 
03:35	27.0	27.0	27.0	80	21.7	0	2	338	0.00	30.159 
03:40	27.0	27.0	27.0	79	21.4	1	3	315	0.00	30.165 
03:45	27.0	27.0	27.0	79	21.4	0	1	270	0.00	30.165 
03:50	27.0	27.0	27.0	79	21.4	0	2	292	0.00	30.168 
03:55	26.9	26.9	26.9	79	21.3	0	2	292	0.00	30.168 
04:00	26.9	26.9	26.9	80	21.6	0	1	292	0.00	30.169 
04:05	26.9	26.9	26.9	81	21.9	0	3	292	0.00	30.169 
04:10	26.9	26.9	26.9	81	21.9	0	2	292	0.00	30.173 
04:15	26.9	26.9	26.9	81	21.9	1	3	248	0.00	30.175 
04:20	26.9	26.9	26.9	81	21.9	0	1	248	0.00	30.174 
04:25	26.9	26.9	26.9	81	21.9	1	3	248	0.00	30.174 
04:30	26.7	26.7	26.7	80	21.4	0	2	338	0.00	30.173 
04:35	26.7	26.7	26.7	80	21.4	0	2	292	0.00	30.174 
04:40	26.6	26.6	26.6	79	21.0	1	3	292	0.00	30.179 
04:45	26.4	26.4	26.4	79	20.8	1	4	338	0.00	30.183 
04:50	26.3	26.3	26.3	79	20.7	1	3	270	0.00	30.183 
04:55	26.3	26.3	26.3	79	20.7	1	4	292	0.00	30.186 
05:00	26.1	26.1	26.1	78	20.2	1	3	315	0.00	30.188 
05:05	26.0	26.0	26.0	78	20.1	1	4	315	0.00	30.188 
05:10	26.0	26.0	26.0	79	20.4	1	4	338	0.00	30.190 
05:15	26.0	26.0	26.0	80	20.7	0	2	292	0.00	30.192 
05:20	25.8	25.8	25.8	80	20.5	0	3	292	0.00	30.195 
05:25	25.7	25.7	25.7	81	20.7	1	4	292	0.00	30.197 
05:30	25.7	25.7	25.7	80	20.4	1	4	292	0.00	30.203 
05:35	25.7	25.7	25.7	80	20.4	1	2	338	0.00	30.206 
05:40	25.6	25.6	25.6	79	20.0	1	2	292	0.00	30.208 
05:45	25.4	25.4	25.4	78	19.5	1	3	292	0.00	30.213 
05:50	25.4	25.4	25.4	78	19.5	1	3	315	0.00	30.219 
05:55	25.4	25.4	25.4	77	19.2	1	3	315	0.00	30.222 
06:00	25.3	25.3	25.3	77	19.1	1	5	315	0.00	30.225 
06:05	25.3	25.3	25.3	77	19.1	1	5	292	0.00	30.225 
06:10	25.1	25.1	25.1	76	18.6	1	3	338	0.00	30.225 
06:15	25.0	25.0	25.0	77	18.8	0	2	0	0.00	30.225 
06:20	24.8	24.8	24.8	77	18.6	1	5	270	0.00	30.230 
06:25	24.7	24.7	24.7	77	18.5	1	2	292	0.00	30.235 
06:30	24.5	24.5	24.5	77	18.3	1	3	315	0.00	30.238 
06:35	24.4	24.4	24.4	78	18.5	0	2	315	0.00	30.242 
06:40	24.2	24.2	24.2	78	18.3	0	1	315	0.00	30.248 
06:45	24.2	24.2	24.2	79	18.6	0	1	315	0.00	30.248 
06:50	24.2	24.2	24.2	80	18.9	0	2	315	0.00	30.250 
06:55	24.1	24.1	24.1	80	18.8	0	1	315	0.00	30.255 
07:00	24.1	24.1	24.1	80	18.8	0	2	315	0.00	30.257 
07:05	23.9	23.9	23.9	80	18.6	0	2	315	0.00	30.260 
07:10	23.9	23.9	23.9	80	18.6	0	2	315	0.00	30.262 
07:15	23.9	23.9	23.9	80	18.6	0	2	315	0.00	30.267 
07:20	23.9	23.9	23.9	80	18.6	1	4	270	0.00	30.269 
07:25	23.9	23.9	23.9	81	18.9	0	2	270	0.00	30.272 
07:30	23.9	23.9	23.9	81	18.9	0	2	292	0.00	30.275 
07:35	23.9	23.9	23.9	81	18.9	0	2	292	0.00	30.284 
07:40	23.9	23.9	23.9	81	18.9	1	4	292	0.00	30.288 
07:45	23.9	23.9	23.9	80	18.6	1	3	338	0.00	30.290 
07:50	24.1	24.1	24.1	80	18.8	0	1	338	0.00	30.294 
07:55	24.1	24.1	24.1	80	18.8	0	3	292	0.00	30.300 
08:00	24.1	24.1	24.1	80	18.8	1	3	292	0.00	30.302 
08:05	24.1	24.1	24.1	79	18.5	1	4	0	0.00	30.305 
08:10	24.1	24.1	24.1	80	18.8	0	3	315	0.00	30.306 
08:15	23.9	23.9	23.9	80	18.6	0	3	270	0.00	30.311 
08:20	23.9	23.9	23.9	79	18.4	1	3	0	0.00	30.319 
08:25	23.9	23.9	23.9	78	18.1	1	3	338	0.00	30.320 
08:30	23.9	23.9	23.9	78	18.1	1	4	315	0.00	30.321 
08:35	23.9	23.9	23.9	78	18.1	1	6	270	0.00	30.322 
08:40	23.8	23.8	23.8	78	18.0	0	2	338	0.00	30.324 
08:45	23.8	23.8	23.8	77	17.7	1	6	315	0.00	30.325 
08:50	23.8	23.8	23.8	77	17.7	1	5	315	0.00	30.332 
08:55	23.8	23.8	23.8	77	17.7	1	5	338	0.00	30.335 
09:00	23.8	23.8	23.8	77	17.7	1	4	315	0.00	30.336 
09:05	23.9	23.9	23.9	77	17.8	1	4	270	0.00	30.339 
09:10	23.9	23.9	23.9	77	17.8	1	3	338	0.00	30.340 
09:15	23.9	23.9	23.9	75	17.2	1	3	45	0.00	30.343 
09:20	23.9	23.9	23.9	73	16.5	1	4	22	0.00	30.346 
09:25	23.9	23.9	23.9	74	16.8	1	4	270	0.00	30.344 
09:30	23.9	23.9	23.9	73	16.5	1	4	22	0.00	30.349 
09:35	23.6	23.6	23.6	70	15.3	1	3	0	0.00	30.351 
09:40	23.5	23.5	23.5	71	15.5	1	4	0	0.00	30.352 
09:45	23.6	23.6	23.6	71	15.6	1	4	0	0.00	30.352 
09:50	23.9	23.9	23.9	68	14.9	1	3	315	0.00	30.354 
09:55	23.8	23.8	23.8	68	14.8	2	5	270	0.00	30.357 
10:00	23.5	23.5	23.5	66	13.8	1	5	338	0.00	30.361 
10:05	23.3	23.3	23.3	67	14.0	1	4	0	0.00	30.367 
10:10	23.5	23.5	23.5	67	14.2	1	3	338	0.00	30.369 
10:15	23.6	23.6	23.6	68	14.6	1	3	338	0.00	30.371 
10:20	23.8	23.8	23.8	68	14.8	1	6	315	0.00	30.372 
10:25	24.1	24.1	24.1	69	15.4	1	3	292	0.00	30.373 
10:30	24.2	24.2	24.2	68	15.2	1	4	292	0.00	30.379 
10:35	24.2	24.2	24.2	68	15.2	1	5	338	0.00	30.385 
10:40	24.4	24.4	24.4	68	15.4	1	4	338	0.00	30.386 
10:45	24.2	24.2	24.2	69	15.5	2	6	22	0.00	30.388 
10:50	24.4	24.4	24.4	68	15.4	1	5	0	0.00	30.391 
10:55	24.4	24.4	24.4	67	15.0	1	5	338	0.00	30.391 
11:00	24.5	24.5	24.5	67	15.1	1	6	292	0.00	30.390 
11:05	24.7	24.7	24.7	66	15.0	1	4	0	0.00	30.394 
11:10	24.7	24.7	24.7	64	14.3	1	5	338	0.00	30.395 
11:15	25.0	25.0	25.0	65	14.9	1	4	292	0.00	30.399 
11:20	25.1	25.1	25.1	64	14.7	1	6	0	0.00	30.401 
11:25	25.1	25.1	25.1	63	14.3	1	3	338	0.00	30.402 
11:30	25.3	25.3	25.3	63	14.5	1	4	338	0.00	30.403 
11:35	25.3	25.3	25.3	63	14.5	1	4	338	0.00	30.403 
11:40	25.3	25.3	25.3	64	14.9	1	3	338	0.00	30.404 
11:45	25.7	25.7	25.7	62	14.5	1	5	338	0.00	30.407 
11:50	25.6	25.6	25.6	60	13.7	1	4	315	0.00	30.405 
11:55	25.6	25.6	25.6	60	13.7	2	9	338	0.00	30.407 
12:00	25.6	25.6	25.6	58	12.9	2	6	338	0.00	30.409 
12:05	25.7	25.7	25.7	58	13.0	1	4	338	0.00	30.413 
12:10	25.4	25.4	25.4	58	12.7	2	6	45	0.00	30.413 
12:15	25.8	25.8	25.8	60	13.9	1	3	338	0.00	30.411 
12:20	26.0	26.0	26.0	58	13.3	2	5	338	0.00	30.412 
12:25	25.8	25.8	25.8	58	13.1	2	6	338	0.00	30.415 
12:30	26.0	26.0	26.0	57	12.9	1	6	292	0.00	30.417 
12:35	26.0	26.0	26.0	56	12.5	1	4	315	0.00	30.418 
12:40	25.8	25.8	25.8	58	13.1	2	7	315	0.00	30.417 
12:45	26.0	26.0	26.0	58	13.3	1	3	338	0.00	30.416 
12:50	26.1	26.1	26.1	60	14.1	1	4	292	0.00	30.416 
12:55	26.4	26.4	26.4	60	14.4	1	3	22	0.00	30.414 
13:00	26.6	26.6	26.6	57	13.4	1	5	0	0.00	30.412 
13:05	26.1	26.1	26.1	56	12.6	2	5	292	0.00	30.415 
13:10	26.1	26.1	26.1	58	13.4	1	5	338	0.00	30.412 
13:15	26.4	26.4	26.4	58	13.7	1	3	315	0.00	30.411 
13:20	26.4	26.4	26.4	54	12.0	1	5	315	0.00	30.410 
13:25	26.6	26.6	26.6	53	11.8	1	5	315	0.00	30.413 
13:30	26.4	26.4	26.4	55	12.5	1	5	315	0.00	30.416 
13:35	26.6	26.6	26.6	55	12.6	2	9	338	0.00	30.414 
13:40	26.6	26.6	26.6	53	11.8	2	5	338	0.00	30.418 
13:45	26.4	26.4	26.4	53	11.6	1	4	292	0.00	30.419 
13:50	26.6	26.6	26.6	51	10.9	1	5	22	0.00	30.418 
13:55	26.6	26.6	26.6	50	10.5	1	4	315	0.00	30.418 
14:00	26.7	26.7	26.7	51	11.0	2	6	270	0.00	30.420 
14:05	26.9	26.9	26.9	48	9.9	1	6	0	0.00	30.422 
14:10	26.4	26.4	26.4	48	9.4	2	6	292	0.00	30.422 
14:15	26.4	26.4	26.4	50	10.3	2	6	292	0.00	30.422 
14:20	26.4	26.4	26.4	48	9.4	1	4	338	0.00	30.424 
14:25	26.7	26.7	26.7	49	10.1	1	5	292	0.00	30.426 
14:30	26.9	26.9	26.9	49	10.3	1	6	22	0.00	30.428 
14:35	27.0	27.0	27.0	49	10.4	1	8	338	0.00	30.431 
14:40	26.6	26.6	26.6	49	10.0	2	5	338	0.00	30.431 
14:45	26.3	26.3	26.3	45	7.9	2	7	22	0.00	30.432 
14:50	26.4	26.4	26.4	47	8.9	1	4	292	0.00	30.433 
14:55	26.6	26.6	26.6	48	9.6	1	4	292	0.00	30.433 
15:00	26.4	26.4	26.4	48	9.4	1	4	0	0.00	30.437 
15:05	26.4	26.4	26.4	48	9.4	1	4	315	0.00	30.437 
15:10	26.1	26.1	26.1	47	8.7	2	6	270	0.00	30.438 
15:15	26.1	26.1	26.1	47	8.7	1	4	292	0.00	30.443 
15:20	26.4	26.4	26.4	46	8.5	1	4	0	0.00	30.446 
15:25	26.1	26.1	26.1	45	7.7	2	6	270	0.00	30.447 
15:30	26.0	26.0	26.0	46	8.1	1	3	270	0.00	30.451 
15:35	26.1	26.1	26.1	45	7.7	1	6	270	0.00	30.452 
15:40	26.1	26.1	26.1	46	8.2	1	4	0	0.00	30.455 
15:45	26.1	26.1	26.1	46	8.2	1	3	338	0.00	30.464 
15:50	26.1	26.1	26.1	46	8.2	1	4	0	0.00	30.466 
15:55	26.0	26.0	26.0	44	7.1	1	3	338	0.00	30.466 
16:00	25.8	25.8	25.8	44	6.9	1	6	22	0.00	30.468 
16:05	25.7	25.7	25.7	44	6.8	1	4	45	0.00	30.470 
16:10	25.7	25.7	25.7	46	7.8	1	5	338	0.00	30.474 
16:15	25.6	25.6	25.6	48	8.7	1	2	315	0.00	30.477 
16:20	25.6	25.6	25.6	47	8.2	0	3	315	0.00	30.479 
16:25	25.7	25.7	25.7	49	9.2	0	3	45	0.00	30.482 
16:30	25.6	25.6	25.6	47	8.2	1	3	22	0.00	30.483 
16:35	25.4	25.4	25.4	48	8.5	1	2	22	0.00	30.486 
16:40	25.4	25.4	25.4	51	9.8	0	2	22	0.00	30.490 
16:45	25.3	25.3	25.3	51	9.7	1	4	270	0.00	30.495 
16:50	25.1	25.1	25.1	50	9.1	1	7	292	0.00	30.497 
16:55	25.0	25.0	25.0	50	9.0	1	2	338	0.00	30.499 
17:00	24.8	24.8	24.8	50	8.8	0	2	338	0.00	30.501 
17:05	24.7	24.7	24.7	51	9.2	1	4	270	0.00	30.502 
17:10	24.5	24.5	24.5	52	9.4	1	4	292	0.00	30.506 
17:15	24.4	24.4	24.4	50	8.5	0	3	0	0.00	30.514 
17:20	24.2	24.2	24.2	51	8.7	0	3	270	0.00	30.517 
17:25	24.1	24.1	24.1	54	9.9	1	4	338	0.00	30.518 
17:30	23.8	23.8	23.8	52	8.8	0	2	0	0.00	30.519 
17:35	23.6	23.6	23.6	51	8.2	0	3	0	0.00	30.520 
17:40	23.5	23.5	23.5	53	8.9	0	1	292	0.00	30.524 
17:45	23.3	23.3	23.3	54	9.1	0	1	292	0.00	30.530 
17:50	23.3	23.3	23.3	54	9.1	0	1	292	0.00	30.533 
17:55	23.2	23.2	23.2	55	9.5	0	1	292	0.00	30.534 
18:00	23.0	23.0	23.0	56	9.7	0	1	292	0.00	30.537 
18:05	22.9	22.9	22.9	58	10.4	0	0	---	0.00	30.543 
18:10	22.7	22.7	22.7	58	10.2	0	0	---	0.00	30.547 
18:15	22.4	22.4	22.4	59	10.3	0	0	---	0.00	30.550 
18:20	22.2	22.2	22.2	60	10.5	0	0	---	0.00	30.551 
18:25	22.1	22.1	22.1	60	10.4	0	0	---	0.00	30.552 
18:30	22.1	22.1	22.1	61	10.7	0	0	---	0.00	30.555 
18:35	21.9	21.9	21.9	61	10.5	0	0	---	0.00	30.562 
18:40	21.8	21.8	21.8	62	10.8	0	0	---	0.00	30.565 
18:45	21.6	21.6	21.6	62	10.6	0	0	---	0.00	30.568 
18:50	21.4	21.4	21.4	62	10.4	0	0	---	0.00	30.571 
18:55	21.3	21.3	21.3	63	10.7	0	0	---	0.00	30.574 
19:00	21.0	21.0	21.0	63	10.4	0	0	---	0.00	30.576 
19:05	20.8	20.8	20.8	63	10.2	0	0	---	0.00	30.579 
19:10	20.6	20.6	20.6	64	10.4	0	0	---	0.00	30.581 
19:15	20.5	20.5	20.5	65	10.6	0	0	---	0.00	30.585 
19:20	20.5	20.5	20.5	65	10.6	0	0	---	0.00	30.587 
19:25	20.3	20.3	20.3	67	11.1	0	0	---	0.00	30.588 
19:30	20.3	20.3	20.3	68	11.5	0	0	---	0.00	30.588 
19:35	20.0	20.0	20.0	67	10.8	0	0	---	0.00	30.591 
19:40	19.9	19.9	19.9	68	11.1	0	0	---	0.00	30.593 
19:45	19.9	19.9	19.9	69	11.4	0	0	---	0.00	30.598 
19:50	19.7	19.7	19.7	72	12.2	0	0	---	0.00	30.599 
19:55	19.7	19.7	19.7	72	12.2	0	0	---	0.00	30.601 
20:00	19.5	19.5	19.5	71	11.7	0	0	---	0.00	30.602 
20:05	19.4	19.4	19.4	71	11.6	0	0	---	0.00	30.605 
20:10	19.2	19.2	19.2	72	11.7	0	0	---	0.00	30.605 
20:15	19.1	19.1	19.1	73	11.9	0	0	---	0.00	30.607 
20:20	18.9	18.9	18.9	76	12.6	0	0	---	0.00	30.609 
20:25	18.8	18.8	18.8	76	12.5	0	0	---	0.00	30.609 
20:30	18.6	18.6	18.6	77	12.6	0	0	---	0.00	30.610 
20:35	18.3	18.3	18.3	77	12.3	0	0	---	0.00	30.615 
20:40	18.1	18.1	18.1	78	12.4	0	0	---	0.00	30.617 
20:45	18.0	18.0	18.0	78	12.3	0	0	---	0.00	30.617 
20:50	17.8	17.8	17.8	79	12.4	0	0	---	0.00	30.618 
20:55	17.7	17.7	17.7	80	12.6	0	0	---	0.00	30.618 
21:00	17.5	17.5	17.5	80	12.4	0	0	---	0.00	30.618 
21:05	17.3	17.3	17.3	80	12.2	0	0	---	0.00	30.619 
21:10	17.2	17.2	17.2	80	12.1	0	0	---	0.00	30.622 
21:15	17.0	17.0	17.0	80	11.9	0	0	---	0.00	30.622 
21:20	16.9	16.9	16.9	80	11.8	0	0	---	0.00	30.622 
21:25	16.7	16.7	16.7	82	12.2	0	0	---	0.00	30.622 
21:30	16.7	16.7	16.7	83	12.5	0	0	---	0.00	30.623 
21:35	16.7	16.7	16.7	83	12.5	0	0	---	0.00	30.624 
21:40	16.7	16.7	16.7	83	12.5	0	0	---	0.00	30.624 
21:45	16.5	16.5	16.5	84	12.5	0	0	---	0.00	30.624 
21:50	16.5	16.5	16.5	84	12.5	0	0	---	0.00	30.624 
21:55	16.4	16.4	16.4	84	12.4	0	0	---	0.00	30.622 
22:00	16.4	16.4	16.4	84	12.4	0	0	---	0.00	30.622 
22:05	16.2	16.2	16.2	84	12.2	0	0	---	0.00	30.621 
22:10	16.1	16.1	16.1	84	12.1	0	0	---	0.00	30.621 
22:15	16.1	16.1	16.1	85	12.4	0	0	---	0.00	30.622 
22:20	16.1	16.1	16.1	85	12.4	0	0	---	0.00	30.623 
22:25	16.2	16.2	16.2	86	12.8	0	0	---	0.00	30.625 
22:30	16.1	16.1	16.1	86	12.7	0	0	---	0.00	30.627 
22:35	16.1	16.1	16.1	86	12.7	0	0	---	0.00	30.628 
22:40	16.1	16.1	16.1	86	12.7	0	0	---	0.00	30.628 
22:45	15.9	15.9	15.9	87	12.7	0	0	---	0.00	30.630 
22:50	15.9	15.9	15.9	87	12.7	0	0	---	0.00	30.633 
22:55	15.9	15.9	15.9	87	12.7	0	0	---	0.00	30.633 
23:00	15.9	15.9	15.9	87	12.7	0	0	---	0.00	30.634 
23:05	16.1	16.1	16.1	87	12.9	0	0	---	0.00	30.633 
23:10	16.1	16.1	16.1	87	12.9	0	0	---	0.00	30.633 
23:15	16.2	16.2	16.2	87	13.0	0	0	---	0.00	30.634 
23:20	16.2	16.2	16.2	87	13.0	0	0	---	0.00	30.634 
23:25	16.4	16.4	16.4	88	13.5	0	0	---	0.00	30.634 
23:30	16.5	16.5	16.5	87	13.3	0	0	---	0.00	30.635 
23:35	16.5	16.5	16.5	87	13.3	0	0	---	0.00	30.635 
23:40	16.7	16.7	16.7	87	13.5	0	0	---	0.00	30.633 
23:45	16.9	16.9	16.9	87	13.7	0	0	---	0.00	30.633 
23:50	16.9	16.9	16.9	87	13.7	0	0	---	0.00	30.634 
23:55	17.0	17.0	17.0	87	13.8	0	0	---	0.00	30.635 

CoCoRaHS
IN-AL-39
A2 Web Hosting
Creative Commons License
GoDaddy
Look for:

loaded 2017-10-16 18:28:11 • last modified 2010-11-18 10:43:29
Privacy PolicyDisclaimer
• wx.awcolley.com is powered by PmWiki v.2002016 •
• all content (unless otherwise noted) © 2017 A W Colley